sensor_id;sensor_type;location;lat;lon;timestamp;P1;durP1;ratioP1;P2;durP2;ratioP2
60488;SDS011;46331;49.252;8.904;2023-02-19T00:00:17;5.90;;;2.90;;
60488;SDS011;46331;49.252;8.904;2023-02-19T00:00:57;6.78;;;2.92;;
60488;SDS011;46331;49.252;8.904;2023-02-19T00:01:39;7.53;;;3.20;;
60488;SDS011;46331;49.252;8.904;2023-02-19T00:02:22;6.20;;;3.25;;
60488;SDS011;46331;49.252;8.904;2023-02-19T00:03:02;6.38;;;2.90;;
60488;SDS011;46331;49.252;8.904;2023-02-19T00:03:47;5.70;;;2.97;;
60488;SDS011;46331;49.252;8.904;2023-02-19T00:04:29;6.15;;;3.10;;
60488;SDS011;46331;49.252;8.904;2023-02-19T00:05:10;6.00;;;2.67;;
60488;SDS011;46331;49.252;8.904;2023-02-19T00:05:50;6.43;;;2.92;;
60488;SDS011;46331;49.252;8.904;2023-02-19T00:06:31;5.90;;;2.80;;
60488;SDS011;46331;49.252;8.904;2023-02-19T00:07:13;5.88;;;3.10;;
60488;SDS011;46331;49.252;8.904;2023-02-19T00:07:54;7.75;;;2.90;;
60488;SDS011;46331;49.252;8.904;2023-02-19T00:08:35;5.90;;;3.00;;
60488;SDS011;46331;49.252;8.904;2023-02-19T00:09:17;8.40;;;2.80;;
60488;SDS011;46331;49.252;8.904;2023-02-19T00:09:59;6.25;;;3.08;;
60488;SDS011;46331;49.252;8.904;2023-02-19T00:10:39;5.77;;;2.83;;
60488;SDS011;46331;49.252;8.904;2023-02-19T00:11:21;9.13;;;3.20;;
60488;SDS011;46331;49.252;8.904;2023-02-19T00:12:05;6.70;;;2.90;;
60488;SDS011;46331;49.252;8.904;2023-02-19T00:12:45;6.95;;;3.10;;
60488;SDS011;46331;49.252;8.904;2023-02-19T00:13:26;5.73;;;3.23;;
60488;SDS011;46331;49.252;8.904;2023-02-19T00:14:07;6.53;;;3.30;;
60488;SDS011;46331;49.252;8.904;2023-02-19T00:14:49;6.40;;;3.38;;
60488;SDS011;46331;49.252;8.904;2023-02-19T00:15:32;6.22;;;3.40;;
60488;SDS011;46331;49.252;8.904;2023-02-19T00:16:17;6.88;;;2.97;;
60488;SDS011;46331;49.252;8.904;2023-02-19T00:16:58;6.97;;;3.03;;
60488;SDS011;46331;49.252;8.904;2023-02-19T00:17:38;6.13;;;3.45;;
60488;SDS011;46331;49.252;8.904;2023-02-19T00:18:19;6.80;;;3.13;;
60488;SDS011;46331;49.252;8.904;2023-02-19T00:19:00;5.40;;;2.83;;
60488;SDS011;46331;49.252;8.904;2023-02-19T00:19:42;5.80;;;3.10;;
60488;SDS011;46331;49.252;8.904;2023-02-19T00:20:22;5.90;;;2.70;;
60488;SDS011;46331;49.252;8.904;2023-02-19T00:21:03;5.32;;;2.80;;
60488;SDS011;46331;49.252;8.904;2023-02-19T00:21:44;6.53;;;3.35;;
60488;SDS011;46331;49.252;8.904;2023-02-19T00:22:25;6.50;;;3.37;;
60488;SDS011;46331;49.252;8.904;2023-02-19T00:23:05;5.07;;;3.00;;
60488;SDS011;46331;49.252;8.904;2023-02-19T00:23:53;7.47;;;3.00;;
60488;SDS011;46331;49.252;8.904;2023-02-19T00:24:35;5.85;;;3.00;;
60488;SDS011;46331;49.252;8.904;2023-02-19T00:25:16;6.63;;;3.10;;
60488;SDS011;46331;49.252;8.904;2023-02-19T00:26:00;7.77;;;3.70;;
60488;SDS011;46331;49.252;8.904;2023-02-19T00:26:43;6.22;;;3.30;;
60488;SDS011;46331;49.252;8.904;2023-02-19T00:27:24;5.97;;;3.20;;
60488;SDS011;46331;49.252;8.904;2023-02-19T00:28:05;8.63;;;3.70;;
60488;SDS011;46331;49.252;8.904;2023-02-19T00:28:46;9.25;;;4.32;;
60488;SDS011;46331;49.252;8.904;2023-02-19T00:29:28;8.15;;;3.88;;
60488;SDS011;46331;49.252;8.904;2023-02-19T00:30:09;7.13;;;3.40;;
60488;SDS011;46331;49.252;8.904;2023-02-19T00:30:49;7.32;;;4.22;;
60488;SDS011;46331;49.252;8.904;2023-02-19T00:31:34;6.65;;;3.15;;
60488;SDS011;46331;49.252;8.904;2023-02-19T00:32:15;6.22;;;3.40;;
60488;SDS011;46331;49.252;8.904;2023-02-19T00:32:55;6.30;;;3.47;;
60488;SDS011;46331;49.252;8.904;2023-02-19T00:33:39;6.28;;;3.50;;
60488;SDS011;46331;49.252;8.904;2023-02-19T00:34:20;6.97;;;3.65;;
60488;SDS011;46331;49.252;8.904;2023-02-19T00:35:01;6.70;;;3.50;;
60488;SDS011;46331;49.252;8.904;2023-02-19T00:35:41;6.13;;;3.55;;
60488;SDS011;46331;49.252;8.904;2023-02-19T00:36:22;6.37;;;3.53;;
60488;SDS011;46331;49.252;8.904;2023-02-19T00:37:04;6.82;;;3.80;;
60488;SDS011;46331;49.252;8.904;2023-02-19T00:37:44;5.93;;;3.00;;
60488;SDS011;46331;49.252;8.904;2023-02-19T00:38:25;7.57;;;3.97;;
60488;SDS011;46331;49.252;8.904;2023-02-19T00:39:06;6.80;;;3.70;;
60488;SDS011;46331;49.252;8.904;2023-02-19T00:39:47;7.30;;;3.90;;
60488;SDS011;46331;49.252;8.904;2023-02-19T00:40:28;7.75;;;3.90;;
60488;SDS011;46331;49.252;8.904;2023-02-19T00:41:09;8.83;;;3.80;;
60488;SDS011;46331;49.252;8.904;2023-02-19T00:42:00;7.28;;;3.28;;
60488;SDS011;46331;49.252;8.904;2023-02-19T00:42:40;6.40;;;3.50;;
60488;SDS011;46331;49.252;8.904;2023-02-19T00:43:21;6.77;;;3.57;;
60488;SDS011;46331;49.252;8.904;2023-02-19T00:44:05;6.90;;;3.47;;
60488;SDS011;46331;49.252;8.904;2023-02-19T00:44:47;7.10;;;3.83;;
60488;SDS011;46331;49.252;8.904;2023-02-19T00:45:28;6.95;;;3.42;;
60488;SDS011;46331;49.252;8.904;2023-02-19T00:46:08;8.30;;;3.47;;
60488;SDS011;46331;49.252;8.904;2023-02-19T00:46:49;8.13;;;3.55;;
60488;SDS011;46331;49.252;8.904;2023-02-19T00:47:29;6.47;;;3.40;;
60488;SDS011;46331;49.252;8.904;2023-02-19T00:48:10;8.90;;;3.75;;
60488;SDS011;46331;49.252;8.904;2023-02-19T00:48:53;6.70;;;3.10;;
60488;SDS011;46331;49.252;8.904;2023-02-19T00:49:35;6.67;;;3.50;;
60488;SDS011;46331;49.252;8.904;2023-02-19T00:50:15;6.85;;;3.47;;
60488;SDS011;46331;49.252;8.904;2023-02-19T00:50:56;7.23;;;3.40;;
60488;SDS011;46331;49.252;8.904;2023-02-19T00:51:37;6.80;;;3.35;;
60488;SDS011;46331;49.252;8.904;2023-02-19T00:52:18;6.78;;;3.20;;
60488;SDS011;46331;49.252;8.904;2023-02-19T00:52:58;7.23;;;3.10;;
60488;SDS011;46331;49.252;8.904;2023-02-19T00:53:39;5.30;;;2.90;;
60488;SDS011;46331;49.252;8.904;2023-02-19T00:54:20;6.93;;;3.33;;
60488;SDS011;46331;49.252;8.904;2023-02-19T00:55:01;5.78;;;3.28;;
60488;SDS011;46331;49.252;8.904;2023-02-19T00:55:42;6.63;;;3.53;;
60488;SDS011;46331;49.252;8.904;2023-02-19T00:56:23;6.30;;;3.30;;
60488;SDS011;46331;49.252;8.904;2023-02-19T00:57:03;6.95;;;3.65;;
60488;SDS011;46331;49.252;8.904;2023-02-19T00:57:45;5.53;;;2.97;;
60488;SDS011;46331;49.252;8.904;2023-02-19T00:58:26;5.53;;;3.03;;
60488;SDS011;46331;49.252;8.904;2023-02-19T00:59:06;5.88;;;3.03;;
60488;SDS011;46331;49.252;8.904;2023-02-19T00:59:47;6.53;;;3.30;;
60488;SDS011;46331;49.252;8.904;2023-02-19T01:00:28;5.73;;;2.93;;
60488;SDS011;46331;49.252;8.904;2023-02-19T01:01:08;6.13;;;3.38;;
60488;SDS011;46331;49.252;8.904;2023-02-19T01:01:50;6.35;;;3.00;;
60488;SDS011;46331;49.252;8.904;2023-02-19T01:02:31;6.17;;;3.33;;
60488;SDS011;46331;49.252;8.904;2023-02-19T01:03:11;5.65;;;3.03;;
60488;SDS011;46331;49.252;8.904;2023-02-19T01:03:52;8.30;;;2.77;;
60488;SDS011;46331;49.252;8.904;2023-02-19T01:04:32;7.07;;;3.22;;
60488;SDS011;46331;49.252;8.904;2023-02-19T01:05:13;7.87;;;3.40;;
60488;SDS011;46331;49.252;8.904;2023-02-19T01:05:53;6.65;;;3.25;;
60488;SDS011;46331;49.252;8.904;2023-02-19T01:06:34;6.33;;;3.23;;
60488;SDS011;46331;49.252;8.904;2023-02-19T01:07:15;6.22;;;3.40;;
60488;SDS011;46331;49.252;8.904;2023-02-19T01:07:57;6.07;;;2.95;;
60488;SDS011;46331;49.252;8.904;2023-02-19T01:08:38;6.50;;;3.20;;
60488;SDS011;46331;49.252;8.904;2023-02-19T01:09:19;6.43;;;3.25;;
60488;SDS011;46331;49.252;8.904;2023-02-19T01:10:00;6.90;;;3.50;;
60488;SDS011;46331;49.252;8.904;2023-02-19T01:10:40;6.97;;;3.42;;
60488;SDS011;46331;49.252;8.904;2023-02-19T01:11:21;7.37;;;3.03;;
60488;SDS011;46331;49.252;8.904;2023-02-19T01:12:03;5.75;;;3.03;;
60488;SDS011;46331;49.252;8.904;2023-02-19T01:12:46;6.10;;;2.90;;
60488;SDS011;46331;49.252;8.904;2023-02-19T01:13:27;6.33;;;2.80;;
60488;SDS011;46331;49.252;8.904;2023-02-19T01:14:09;6.43;;;3.05;;
60488;SDS011;46331;49.252;8.904;2023-02-19T01:14:50;7.10;;;3.15;;
60488;SDS011;46331;49.252;8.904;2023-02-19T01:15:32;6.20;;;3.17;;
60488;SDS011;46331;49.252;8.904;2023-02-19T01:16:19;6.27;;;3.03;;
60488;SDS011;46331;49.252;8.904;2023-02-19T01:17:03;5.53;;;2.90;;
60488;SDS011;46331;49.252;8.904;2023-02-19T01:17:43;6.28;;;3.10;;
60488;SDS011;46331;49.252;8.904;2023-02-19T01:18:24;6.53;;;3.03;;
60488;SDS011;46331;49.252;8.904;2023-02-19T01:19:04;6.32;;;3.20;;
60488;SDS011;46331;49.252;8.904;2023-02-19T01:19:45;6.33;;;2.90;;
60488;SDS011;46331;49.252;8.904;2023-02-19T01:20:26;6.05;;;2.90;;
60488;SDS011;46331;49.252;8.904;2023-02-19T01:21:08;5.97;;;2.92;;
60488;SDS011;46331;49.252;8.904;2023-02-19T01:21:52;5.50;;;2.95;;
60488;SDS011;46331;49.252;8.904;2023-02-19T01:22:33;5.47;;;2.80;;
60488;SDS011;46331;49.252;8.904;2023-02-19T01:23:13;5.55;;;2.55;;
60488;SDS011;46331;49.252;8.904;2023-02-19T01:23:54;7.00;;;3.00;;
60488;SDS011;46331;49.252;8.904;2023-02-19T01:24:36;5.70;;;3.10;;
60488;SDS011;46331;49.252;8.904;2023-02-19T01:25:16;5.83;;;2.90;;
60488;SDS011;46331;49.252;8.904;2023-02-19T01:25:57;9.10;;;2.90;;
60488;SDS011;46331;49.252;8.904;2023-02-19T01:26:37;5.95;;;2.90;;
60488;SDS011;46331;49.252;8.904;2023-02-19T01:27:19;5.53;;;2.75;;
60488;SDS011;46331;49.252;8.904;2023-02-19T01:28:00;6.13;;;2.90;;
60488;SDS011;46331;49.252;8.904;2023-02-19T01:28:40;5.87;;;2.73;;
60488;SDS011;46331;49.252;8.904;2023-02-19T01:29:21;5.97;;;2.60;;
60488;SDS011;46331;49.252;8.904;2023-02-19T01:30:02;5.03;;;2.10;;
60488;SDS011;46331;49.252;8.904;2023-02-19T01:30:42;5.30;;;2.43;;
60488;SDS011;46331;49.252;8.904;2023-02-19T01:31:23;5.05;;;2.40;;
60488;SDS011;46331;49.252;8.904;2023-02-19T01:32:04;5.45;;;2.60;;
60488;SDS011;46331;49.252;8.904;2023-02-19T01:32:44;6.83;;;2.20;;
60488;SDS011;46331;49.252;8.904;2023-02-19T01:33:25;5.43;;;2.40;;
60488;SDS011;46331;49.252;8.904;2023-02-19T01:34:05;5.40;;;2.40;;
60488;SDS011;46331;49.252;8.904;2023-02-19T01:34:46;5.27;;;2.50;;
60488;SDS011;46331;49.252;8.904;2023-02-19T01:35:26;5.30;;;2.30;;
60488;SDS011;46331;49.252;8.904;2023-02-19T01:36:07;5.03;;;2.40;;
60488;SDS011;46331;49.252;8.904;2023-02-19T01:36:48;4.63;;;2.30;;
60488;SDS011;46331;49.252;8.904;2023-02-19T01:37:28;5.37;;;2.30;;
60488;SDS011;46331;49.252;8.904;2023-02-19T01:38:09;4.65;;;2.25;;
60488;SDS011;46331;49.252;8.904;2023-02-19T01:38:49;5.07;;;2.50;;
60488;SDS011;46331;49.252;8.904;2023-02-19T01:39:30;5.67;;;2.40;;
60488;SDS011;46331;49.252;8.904;2023-02-19T01:40:10;4.60;;;2.00;;
60488;SDS011;46331;49.252;8.904;2023-02-19T01:40:55;5.23;;;2.63;;
60488;SDS011;46331;49.252;8.904;2023-02-19T01:41:40;4.37;;;2.07;;
60488;SDS011;46331;49.252;8.904;2023-02-19T01:42:21;4.82;;;2.20;;
60488;SDS011;46331;49.252;8.904;2023-02-19T01:43:01;5.65;;;1.90;;
60488;SDS011;46331;49.252;8.904;2023-02-19T01:44:02;5.65;;;2.03;;
60488;SDS011;46331;49.252;8.904;2023-02-19T01:45:28;4.83;;;2.13;;
60488;SDS011;46331;49.252;8.904;2023-02-19T01:46:11;5.07;;;2.13;;
60488;SDS011;46331;49.252;8.904;2023-02-19T01:46:51;4.50;;;2.23;;
60488;SDS011;46331;49.252;8.904;2023-02-19T01:47:36;4.57;;;2.00;;
60488;SDS011;46331;49.252;8.904;2023-02-19T01:49:01;4.38;;;1.90;;
60488;SDS011;46331;49.252;8.904;2023-02-19T01:49:49;4.57;;;1.83;;
60488;SDS011;46331;49.252;8.904;2023-02-19T01:50:36;5.47;;;1.88;;
60488;SDS011;46331;49.252;8.904;2023-02-19T01:51:20;5.45;;;1.80;;
60488;SDS011;46331;49.252;8.904;2023-02-19T01:52:07;4.60;;;1.83;;
60488;SDS011;46331;49.252;8.904;2023-02-19T01:52:53;5.03;;;2.00;;
60488;SDS011;46331;49.252;8.904;2023-02-19T01:53:39;5.35;;;2.13;;
60488;SDS011;46331;49.252;8.904;2023-02-19T01:54:24;5.03;;;2.13;;
60488;SDS011;46331;49.252;8.904;2023-02-19T01:55:09;4.78;;;1.80;;
60488;SDS011;46331;49.252;8.904;2023-02-19T01:55:52;4.30;;;1.77;;
60488;SDS011;46331;49.252;8.904;2023-02-19T01:56:37;4.68;;;1.75;;
60488;SDS011;46331;49.252;8.904;2023-02-19T01:57:20;6.30;;;2.40;;
60488;SDS011;46331;49.252;8.904;2023-02-19T01:58:03;5.65;;;2.35;;
60488;SDS011;46331;49.252;8.904;2023-02-19T01:58:45;5.25;;;2.55;;
60488;SDS011;46331;49.252;8.904;2023-02-19T01:59:26;4.05;;;1.85;;
60488;SDS011;46331;49.252;8.904;2023-02-19T02:00:08;5.03;;;2.05;;
60488;SDS011;46331;49.252;8.904;2023-02-19T02:00:53;4.72;;;2.03;;
60488;SDS011;46331;49.252;8.904;2023-02-19T02:01:35;4.70;;;1.77;;
60488;SDS011;46331;49.252;8.904;2023-02-19T02:02:18;5.70;;;2.03;;
60488;SDS011;46331;49.252;8.904;2023-02-19T02:02:58;5.35;;;1.80;;
60488;SDS011;46331;49.252;8.904;2023-02-19T02:03:40;4.97;;;2.30;;
60488;SDS011;46331;49.252;8.904;2023-02-19T02:04:22;4.50;;;1.73;;
60488;SDS011;46331;49.252;8.904;2023-02-19T02:05:03;4.90;;;2.25;;
60488;SDS011;46331;49.252;8.904;2023-02-19T02:06:23;5.70;;;2.03;;
60488;SDS011;46331;49.252;8.904;2023-02-19T02:06:56;5.68;;;2.20;;
60488;SDS011;46331;49.252;8.904;2023-02-19T02:07:40;4.63;;;1.92;;
60488;SDS011;46331;49.252;8.904;2023-02-19T02:08:39;4.20;;;1.90;;
60488;SDS011;46331;49.252;8.904;2023-02-19T02:09:39;5.35;;;2.00;;
60488;SDS011;46331;49.252;8.904;2023-02-19T02:10:38;4.47;;;1.83;;
60488;SDS011;46331;49.252;8.904;2023-02-19T02:11:19;4.72;;;1.80;;
60488;SDS011;46331;49.252;8.904;2023-02-19T02:12:00;4.85;;;2.20;;
60488;SDS011;46331;49.252;8.904;2023-02-19T02:12:41;4.67;;;1.80;;
60488;SDS011;46331;49.252;8.904;2023-02-19T02:13:21;5.00;;;2.10;;
60488;SDS011;46331;49.252;8.904;2023-02-19T02:14:02;4.33;;;1.90;;
60488;SDS011;46331;49.252;8.904;2023-02-19T02:14:44;4.60;;;1.98;;
60488;SDS011;46331;49.252;8.904;2023-02-19T02:15:28;4.68;;;2.20;;
60488;SDS011;46331;49.252;8.904;2023-02-19T02:17:56;5.53;;;2.10;;
60488;SDS011;46331;49.252;8.904;2023-02-19T02:22:18;4.20;;;1.63;;
60488;SDS011;46331;49.252;8.904;2023-02-19T02:23:14;4.68;;;1.70;;
60488;SDS011;46331;49.252;8.904;2023-02-19T02:29:30;4.18;;;1.35;;
60488;SDS011;46331;49.252;8.904;2023-02-19T02:31:12;4.03;;;1.70;;
60488;SDS011;46331;49.252;8.904;2023-02-19T02:31:56;3.58;;;1.42;;
60488;SDS011;46331;49.252;8.904;2023-02-19T02:33:57;5.97;;;1.65;;
60488;SDS011;46331;49.252;8.904;2023-02-19T02:34:52;3.45;;;1.30;;
60488;SDS011;46331;49.252;8.904;2023-02-19T02:35:38;4.25;;;1.70;;
60488;SDS011;46331;49.252;8.904;2023-02-19T02:36:37;4.22;;;1.52;;
60488;SDS011;46331;49.252;8.904;2023-02-19T02:37:22;4.60;;;1.33;;
60488;SDS011;46331;49.252;8.904;2023-02-19T02:38:06;3.45;;;1.08;;
60488;SDS011;46331;49.252;8.904;2023-02-19T02:38:50;3.47;;;1.30;;
60488;SDS011;46331;49.252;8.904;2023-02-19T02:39:34;4.57;;;2.00;;
60488;SDS011;46331;49.252;8.904;2023-02-19T02:40:16;4.30;;;1.70;;
60488;SDS011;46331;49.252;8.904;2023-02-19T02:40:58;4.63;;;1.80;;
60488;SDS011;46331;49.252;8.904;2023-02-19T02:41:40;3.90;;;1.73;;
60488;SDS011;46331;49.252;8.904;2023-02-19T02:42:23;3.90;;;1.20;;
60488;SDS011;46331;49.252;8.904;2023-02-19T02:43:14;3.72;;;1.20;;
60488;SDS011;46331;49.252;8.904;2023-02-19T02:43:58;3.17;;;1.17;;
60488;SDS011;46331;49.252;8.904;2023-02-19T02:44:39;4.07;;;1.60;;
60488;SDS011;46331;49.252;8.904;2023-02-19T02:45:22;3.80;;;1.30;;
60488;SDS011;46331;49.252;8.904;2023-02-19T02:46:27;3.78;;;1.20;;
60488;SDS011;46331;49.252;8.904;2023-02-19T02:47:13;3.85;;;1.58;;
60488;SDS011;46331;49.252;8.904;2023-02-19T02:49:08;3.97;;;1.38;;
60488;SDS011;46331;49.252;8.904;2023-02-19T02:49:58;3.40;;;1.20;;
60488;SDS011;46331;49.252;8.904;2023-02-19T02:50:54;4.20;;;1.47;;
60488;SDS011;46331;49.252;8.904;2023-02-19T02:51:44;3.45;;;1.20;;
60488;SDS011;46331;49.252;8.904;2023-02-19T02:52:33;4.00;;;1.45;;
60488;SDS011;46331;49.252;8.904;2023-02-19T02:53:44;5.13;;;1.30;;
60488;SDS011;46331;49.252;8.904;2023-02-19T02:54:49;4.38;;;1.42;;
60488;SDS011;46331;49.252;8.904;2023-02-19T02:55:43;2.63;;;0.85;;
60488;SDS011;46331;49.252;8.904;2023-02-19T02:56:29;5.88;;;1.25;;
60488;SDS011;46331;49.252;8.904;2023-02-19T02:57:10;4.35;;;1.65;;
60488;SDS011;46331;49.252;8.904;2023-02-19T02:58:09;3.28;;;1.10;;
60488;SDS011;46331;49.252;8.904;2023-02-19T02:58:51;4.10;;;1.30;;
60488;SDS011;46331;49.252;8.904;2023-02-19T02:59:37;3.63;;;1.40;;
60488;SDS011;46331;49.252;8.904;2023-02-19T03:00:19;3.92;;;1.50;;
60488;SDS011;46331;49.252;8.904;2023-02-19T03:01:04;3.33;;;1.15;;
60488;SDS011;46331;49.252;8.904;2023-02-19T03:02:13;5.40;;;1.27;;
60488;SDS011;46331;49.252;8.904;2023-02-19T03:03:02;3.58;;;1.13;;
60488;SDS011;46331;49.252;8.904;2023-02-19T03:03:44;4.10;;;1.35;;
60488;SDS011;46331;49.252;8.904;2023-02-19T03:04:32;4.45;;;1.35;;
60488;SDS011;46331;49.252;8.904;2023-02-19T03:05:16;4.15;;;1.10;;
60488;SDS011;46331;49.252;8.904;2023-02-19T03:06:19;3.65;;;1.10;;
60488;SDS011;46331;49.252;8.904;2023-02-19T03:07:04;3.13;;;1.10;;
60488;SDS011;46331;49.252;8.904;2023-02-19T03:08:54;3.50;;;1.15;;
60488;SDS011;46331;49.252;8.904;2023-02-19T03:09:45;3.63;;;1.20;;
60488;SDS011;46331;49.252;8.904;2023-02-19T03:10:40;3.13;;;1.00;;
60488;SDS011;46331;49.252;8.904;2023-02-19T03:11:23;3.60;;;1.30;;
60488;SDS011;46331;49.252;8.904;2023-02-19T03:12:23;3.50;;;1.20;;
60488;SDS011;46331;49.252;8.904;2023-02-19T03:13:27;3.15;;;1.10;;
60488;SDS011;46331;49.252;8.904;2023-02-19T03:14:36;3.17;;;1.00;;
60488;SDS011;46331;49.252;8.904;2023-02-19T03:15:44;3.47;;;1.10;;
60488;SDS011;46331;49.252;8.904;2023-02-19T03:16:47;2.90;;;0.90;;
60488;SDS011;46331;49.252;8.904;2023-02-19T03:17:53;3.07;;;0.90;;
60488;SDS011;46331;49.252;8.904;2023-02-19T03:18:57;3.30;;;0.90;;
60488;SDS011;46331;49.252;8.904;2023-02-19T03:19:58;3.50;;;1.10;;
60488;SDS011;46331;49.252;8.904;2023-02-19T03:20:49;3.88;;;1.02;;
60488;SDS011;46331;49.252;8.904;2023-02-19T03:21:33;3.72;;;1.30;;
60488;SDS011;46331;49.252;8.904;2023-02-19T03:22:28;3.42;;;1.02;;
60488;SDS011;46331;49.252;8.904;2023-02-19T03:23:14;3.53;;;1.10;;
60488;SDS011;46331;49.252;8.904;2023-02-19T03:23:56;3.30;;;0.90;;
60488;SDS011;46331;49.252;8.904;2023-02-19T03:24:58;2.97;;;1.00;;
60488;SDS011;46331;49.252;8.904;2023-02-19T03:26:02;3.22;;;1.00;;
60488;SDS011;46331;49.252;8.904;2023-02-19T03:26:50;3.17;;;1.00;;
60488;SDS011;46331;49.252;8.904;2023-02-19T03:27:34;3.70;;;1.00;;
60488;SDS011;46331;49.252;8.904;2023-02-19T03:28:18;2.85;;;0.80;;
60488;SDS011;46331;49.252;8.904;2023-02-19T03:29:22;3.30;;;0.90;;
60488;SDS011;46331;49.252;8.904;2023-02-19T03:30:13;4.05;;;0.90;;
60488;SDS011;46331;49.252;8.904;2023-02-19T03:30:59;3.00;;;0.90;;
60488;SDS011;46331;49.252;8.904;2023-02-19T03:31:39;3.27;;;0.97;;
60488;SDS011;46331;49.252;8.904;2023-02-19T03:32:23;2.95;;;0.90;;
60488;SDS011;46331;49.252;8.904;2023-02-19T03:33:21;3.58;;;1.10;;
60488;SDS011;46331;49.252;8.904;2023-02-19T03:34:08;2.78;;;0.73;;
60488;SDS011;46331;49.252;8.904;2023-02-19T03:34:58;2.72;;;0.80;;
60488;SDS011;46331;49.252;8.904;2023-02-19T03:35:45;3.13;;;0.80;;
60488;SDS011;46331;49.252;8.904;2023-02-19T03:36:34;3.03;;;1.00;;
60488;SDS011;46331;49.252;8.904;2023-02-19T03:37:30;3.47;;;0.82;;
60488;SDS011;46331;49.252;8.904;2023-02-19T03:38:21;2.80;;;0.98;;
60488;SDS011;46331;49.252;8.904;2023-02-19T03:39:07;3.00;;;0.93;;
60488;SDS011;46331;49.252;8.904;2023-02-19T03:39:51;2.93;;;1.00;;
60488;SDS011;46331;49.252;8.904;2023-02-19T03:40:37;2.67;;;0.80;;
60488;SDS011;46331;49.252;8.904;2023-02-19T03:43:20;4.35;;;1.15;;
60488;SDS011;46331;49.252;8.904;2023-02-19T03:44:17;6.38;;;1.00;;
60488;SDS011;46331;49.252;8.904;2023-02-19T03:46:59;3.60;;;0.77;;
60488;SDS011;46331;49.252;8.904;2023-02-19T03:47:49;3.70;;;0.93;;
60488;SDS011;46331;49.252;8.904;2023-02-19T03:48:35;3.13;;;0.80;;
60488;SDS011;46331;49.252;8.904;2023-02-19T03:52:15;2.72;;;0.73;;
60488;SDS011;46331;49.252;8.904;2023-02-19T03:54:25;3.15;;;0.90;;
60488;SDS011;46331;49.252;8.904;2023-02-19T03:55:14;3.40;;;1.20;;
60488;SDS011;46331;49.252;8.904;2023-02-19T03:56:48;2.92;;;1.00;;
60488;SDS011;46331;49.252;8.904;2023-02-19T03:58:23;5.32;;;0.88;;
60488;SDS011;46331;49.252;8.904;2023-02-19T03:59:24;4.55;;;1.08;;
60488;SDS011;46331;49.252;8.904;2023-02-19T04:00:09;3.47;;;1.08;;
60488;SDS011;46331;49.252;8.904;2023-02-19T04:02:36;3.28;;;1.10;;
60488;SDS011;46331;49.252;8.904;2023-02-19T04:03:42;4.28;;;1.02;;
60488;SDS011;46331;49.252;8.904;2023-02-19T04:04:31;3.25;;;1.05;;
60488;SDS011;46331;49.252;8.904;2023-02-19T04:05:15;3.53;;;1.00;;
60488;SDS011;46331;49.252;8.904;2023-02-19T04:06:01;3.43;;;1.00;;
60488;SDS011;46331;49.252;8.904;2023-02-19T04:06:45;3.58;;;1.20;;
60488;SDS011;46331;49.252;8.904;2023-02-19T04:07:35;4.45;;;1.40;;
60488;SDS011;46331;49.252;8.904;2023-02-19T04:08:21;3.60;;;1.20;;
60488;SDS011;46331;49.252;8.904;2023-02-19T04:09:11;3.10;;;1.10;;
60488;SDS011;46331;49.252;8.904;2023-02-19T04:09:55;2.88;;;1.02;;
60488;SDS011;46331;49.252;8.904;2023-02-19T04:10:36;3.95;;;1.15;;
60488;SDS011;46331;49.252;8.904;2023-02-19T04:11:19;4.28;;;1.17;;
60488;SDS011;46331;49.252;8.904;2023-02-19T04:12:04;3.60;;;1.30;;
60488;SDS011;46331;49.252;8.904;2023-02-19T04:12:47;3.15;;;0.95;;
60488;SDS011;46331;49.252;8.904;2023-02-19T04:13:37;3.63;;;1.17;;
60488;SDS011;46331;49.252;8.904;2023-02-19T04:14:24;3.97;;;1.52;;
60488;SDS011;46331;49.252;8.904;2023-02-19T04:15:12;3.97;;;1.20;;
60488;SDS011;46331;49.252;8.904;2023-02-19T04:16:01;3.20;;;1.13;;
60488;SDS011;46331;49.252;8.904;2023-02-19T04:16:46;3.33;;;0.98;;
60488;SDS011;46331;49.252;8.904;2023-02-19T04:17:36;4.18;;;1.20;;
60488;SDS011;46331;49.252;8.904;2023-02-19T04:18:22;4.38;;;1.17;;
60488;SDS011;46331;49.252;8.904;2023-02-19T04:19:09;4.57;;;1.30;;
60488;SDS011;46331;49.252;8.904;2023-02-19T04:19:52;4.30;;;1.27;;
60488;SDS011;46331;49.252;8.904;2023-02-19T04:20:37;4.00;;;1.30;;
60488;SDS011;46331;49.252;8.904;2023-02-19T04:21:21;6.13;;;1.40;;
60488;SDS011;46331;49.252;8.904;2023-02-19T04:22:03;4.15;;;1.15;;
60488;SDS011;46331;49.252;8.904;2023-02-19T04:22:45;3.85;;;1.27;;
60488;SDS011;46331;49.252;8.904;2023-02-19T04:23:26;3.40;;;1.20;;
60488;SDS011;46331;49.252;8.904;2023-02-19T04:24:30;3.97;;;1.60;;
60488;SDS011;46331;49.252;8.904;2023-02-19T04:25:15;4.00;;;1.40;;
60488;SDS011;46331;49.252;8.904;2023-02-19T04:25:56;3.67;;;1.55;;
60488;SDS011;46331;49.252;8.904;2023-02-19T04:26:40;3.13;;;1.10;;
60488;SDS011;46331;49.252;8.904;2023-02-19T04:27:23;4.37;;;1.50;;
60488;SDS011;46331;49.252;8.904;2023-02-19T04:28:03;4.93;;;1.52;;
60488;SDS011;46331;49.252;8.904;2023-02-19T04:28:44;3.90;;;1.70;;
60488;SDS011;46331;49.252;8.904;2023-02-19T04:29:25;4.20;;;1.70;;
60488;SDS011;46331;49.252;8.904;2023-02-19T04:30:07;4.50;;;1.70;;
60488;SDS011;46331;49.252;8.904;2023-02-19T04:30:50;4.10;;;1.70;;
60488;SDS011;46331;49.252;8.904;2023-02-19T04:31:30;4.57;;;1.73;;
60488;SDS011;46331;49.252;8.904;2023-02-19T04:32:14;4.63;;;2.00;;
60488;SDS011;46331;49.252;8.904;2023-02-19T04:32:55;4.80;;;2.17;;
60488;SDS011;46331;49.252;8.904;2023-02-19T04:33:35;4.30;;;1.75;;
60488;SDS011;46331;49.252;8.904;2023-02-19T04:34:16;4.85;;;2.38;;
60488;SDS011;46331;49.252;8.904;2023-02-19T04:34:57;4.57;;;2.13;;
60488;SDS011;46331;49.252;8.904;2023-02-19T04:35:37;5.00;;;2.22;;
60488;SDS011;46331;49.252;8.904;2023-02-19T04:36:18;5.30;;;2.60;;
60488;SDS011;46331;49.252;8.904;2023-02-19T04:36:58;4.93;;;2.27;;
60488;SDS011;46331;49.252;8.904;2023-02-19T04:37:39;4.60;;;2.33;;
60488;SDS011;46331;49.252;8.904;2023-02-19T04:38:19;5.30;;;2.47;;
60488;SDS011;46331;49.252;8.904;2023-02-19T04:39:00;6.65;;;2.20;;
60488;SDS011;46331;49.252;8.904;2023-02-19T04:39:40;5.00;;;2.20;;
60488;SDS011;46331;49.252;8.904;2023-02-19T04:40:21;5.27;;;2.60;;
60488;SDS011;46331;49.252;8.904;2023-02-19T04:41:01;7.03;;;2.40;;
60488;SDS011;46331;49.252;8.904;2023-02-19T04:41:42;5.40;;;2.50;;
60488;SDS011;46331;49.252;8.904;2023-02-19T04:42:23;6.90;;;2.87;;
60488;SDS011;46331;49.252;8.904;2023-02-19T04:43:03;6.20;;;2.70;;
60488;SDS011;46331;49.252;8.904;2023-02-19T04:43:44;4.50;;;2.20;;
60488;SDS011;46331;49.252;8.904;2023-02-19T04:44:24;5.10;;;2.90;;
60488;SDS011;46331;49.252;8.904;2023-02-19T04:45:05;5.45;;;3.13;;
60488;SDS011;46331;49.252;8.904;2023-02-19T04:45:46;4.70;;;2.45;;
60488;SDS011;46331;49.252;8.904;2023-02-19T04:46:26;4.77;;;2.60;;
60488;SDS011;46331;49.252;8.904;2023-02-19T04:47:07;4.80;;;2.80;;
60488;SDS011;46331;49.252;8.904;2023-02-19T04:47:47;6.40;;;3.00;;
60488;SDS011;46331;49.252;8.904;2023-02-19T04:48:28;5.70;;;3.23;;
60488;SDS011;46331;49.252;8.904;2023-02-19T04:49:08;6.72;;;3.55;;
60488;SDS011;46331;49.252;8.904;2023-02-19T04:49:49;6.07;;;2.70;;
60488;SDS011;46331;49.252;8.904;2023-02-19T04:50:29;6.10;;;3.20;;
60488;SDS011;46331;49.252;8.904;2023-02-19T04:51:10;6.00;;;3.20;;
60488;SDS011;46331;49.252;8.904;2023-02-19T04:51:51;5.78;;;3.33;;
60488;SDS011;46331;49.252;8.904;2023-02-19T04:52:31;5.40;;;2.83;;
60488;SDS011;46331;49.252;8.904;2023-02-19T04:53:15;5.00;;;3.13;;
60488;SDS011;46331;49.252;8.904;2023-02-19T04:53:55;5.65;;;3.50;;
60488;SDS011;46331;49.252;8.904;2023-02-19T04:54:36;6.27;;;3.03;;
60488;SDS011;46331;49.252;8.904;2023-02-19T04:55:16;5.93;;;3.40;;
60488;SDS011;46331;49.252;8.904;2023-02-19T04:56:03;5.75;;;3.42;;
60488;SDS011;46331;49.252;8.904;2023-02-19T04:56:48;6.05;;;3.70;;